createdAt,value
2018-12-21T00:00:26.657Z,22.63
2018-12-21T00:02:55.409Z,22.20
2018-12-21T00:05:24.183Z,21.17
2018-12-21T00:07:53.039Z,21.83
2018-12-21T00:10:21.801Z,22.10
2018-12-21T00:12:50.516Z,23.53
2018-12-21T00:15:20.305Z,21.80
2018-12-21T00:17:49.062Z,22.20
2018-12-21T00:20:17.828Z,22.67
2018-12-21T00:22:46.733Z,21.87
2018-12-21T00:25:15.520Z,21.93
2018-12-21T00:27:45.254Z,21.67
2018-12-21T00:30:18.630Z,21.93
2018-12-21T00:32:54.012Z,21.33
2018-12-21T00:35:28.177Z,21.50
2018-12-21T00:38:02.433Z,20.80
2018-12-21T00:40:36.709Z,22.03
2018-12-21T00:43:13.808Z,21.47
2018-12-21T00:45:46.264Z,21.53
2018-12-21T00:48:15.092Z,21.53
2018-12-21T00:50:43.863Z,20.97
2018-12-21T00:53:13.125Z,22.40
2018-12-21T00:55:41.930Z,21.57
2018-12-21T00:58:10.719Z,22.60
2018-12-21T01:00:39.512Z,21.23
2018-12-21T01:03:08.365Z,21.67
2018-12-21T01:05:37.261Z,20.73
2018-12-21T01:08:06.408Z,21.77
2018-12-21T01:10:35.401Z,21.60
2018-12-21T01:13:04.348Z,22.03
2018-12-21T01:15:33.073Z,22.17
2018-12-21T01:18:02.819Z,22.43
2018-12-21T01:20:31.714Z,21.77
2018-12-21T01:23:00.466Z,20.93
2018-12-21T01:25:29.203Z,21.93
2018-12-21T01:27:57.960Z,21.23
2018-12-21T01:30:26.812Z,22.23
2018-12-21T01:32:55.644Z,21.23
2018-12-21T01:35:24.360Z,20.80
2018-12-21T01:37:53.112Z,20.80
2018-12-21T01:40:21.926Z,22.10
2018-12-21T01:42:50.684Z,22.43
2018-12-21T01:45:19.506Z,21.77
2018-12-21T01:47:48.276Z,21.00
2018-12-21T01:50:17.146Z,21.00
2018-12-21T01:52:46.021Z,21.17
2018-12-21T01:55:14.772Z,21.30
2018-12-21T01:57:43.861Z,20.13
2018-12-21T02:00:12.793Z,21.10
2018-12-21T02:02:41.821Z,22.50
2018-12-21T02:05:11.693Z,21.40
2018-12-21T02:07:40.384Z,21.77
2018-12-21T02:10:09.309Z,21.70
2018-12-21T02:12:38.083Z,21.20
2018-12-21T02:15:06.905Z,20.80
2018-12-21T02:17:35.663Z,22.73
2018-12-21T02:20:06.101Z,21.30
2018-12-21T02:22:35.029Z,21.07
2018-12-21T02:25:03.858Z,22.10
2018-12-21T02:27:32.599Z,22.23
2018-12-21T02:30:01.316Z,21.67
2018-12-21T02:32:30.093Z,22.17
2018-12-21T02:34:58.790Z,21.57
2018-12-21T02:37:27.544Z,20.63
2018-12-21T02:39:56.348Z,21.50
2018-12-21T02:42:25.035Z,21.93
2018-12-21T02:44:53.726Z,21.23
2018-12-21T02:47:22.479Z,22.23
2018-12-21T02:49:51.186Z,21.13
2018-12-21T02:52:19.942Z,20.73
2018-12-21T02:54:48.624Z,20.83
2018-12-21T02:57:18.267Z,21.33
2018-12-21T02:59:47.073Z,21.53
2018-12-21T03:02:15.824Z,21.50
2018-12-21T03:04:44.533Z,21.07
2018-12-21T03:07:14.104Z,21.30
2018-12-21T03:09:42.819Z,20.93
2018-12-21T03:12:11.575Z,21.27
2018-12-21T03:14:40.409Z,21.53
2018-12-21T03:17:09.224Z,21.10
2018-12-21T03:19:37.979Z,20.53
2018-12-21T03:22:14.682Z,20.60
2018-12-21T03:24:37.764Z,20.17
2018-12-21T03:27:06.523Z,20.30
2018-12-21T03:29:35.236Z,19.97
2018-12-21T03:32:03.981Z,20.77
2018-12-21T03:34:32.771Z,19.87
2018-12-21T03:37:02.222Z,20.13
2018-12-21T03:39:30.934Z,20.33
2018-12-21T03:41:59.784Z,19.47
2018-12-21T03:44:28.543Z,19.50
2018-12-21T03:46:57.234Z,19.03
2018-12-21T03:49:26.072Z,19.40
2018-12-21T03:51:54.827Z,18.33
2018-12-21T03:54:23.663Z,19.17
2018-12-21T03:56:52.421Z,18.77
2018-12-21T03:59:21.185Z,18.73
2018-12-21T04:01:49.937Z,18.93
2018-12-21T04:04:18.660Z,17.37
2018-12-21T04:06:47.412Z,17.17
2018-12-21T04:09:16.100Z,16.93
2018-12-21T04:11:44.813Z,16.40
2018-12-21T04:14:13.492Z,16.83
2018-12-21T04:16:42.342Z,16.37
2018-12-21T04:19:11.267Z,15.87
2018-12-21T04:21:40.024Z,16.83
2018-12-21T04:24:08.709Z,16.80
2018-12-21T04:26:37.468Z,16.47
2018-12-21T04:29:06.148Z,17.13
2018-12-21T04:31:34.874Z,15.70
2018-12-21T04:34:03.793Z,16.33
2018-12-21T04:36:32.488Z,15.37
2018-12-21T04:39:01.188Z,14.77
2018-12-21T04:41:31.356Z,14.67
2018-12-21T04:44:00.177Z,15.67
2018-12-21T04:46:28.957Z,15.07
2018-12-21T04:48:57.736Z,14.50
2018-12-21T04:51:26.597Z,15.10
2018-12-21T04:53:57.389Z,14.63
2018-12-21T04:56:25.968Z,13.70
2018-12-21T04:58:54.658Z,13.97
2018-12-21T05:01:23.418Z,14.07
2018-12-21T05:03:52.171Z,13.37
2018-12-21T05:06:20.972Z,13.37
2018-12-21T05:08:49.666Z,12.57
2018-12-21T05:11:18.416Z,13.43
2018-12-21T05:13:47.109Z,13.13
2018-12-21T05:16:15.860Z,12.77
2018-12-21T05:18:45.087Z,12.97
2018-12-21T05:21:13.824Z,12.57
2018-12-21T05:23:42.652Z,12.80
2018-12-21T05:26:11.412Z,12.80
2018-12-21T05:28:40.101Z,12.77
2018-12-21T05:31:08.958Z,11.73
2018-12-21T05:33:37.642Z,12.17
2018-12-21T05:36:06.417Z,11.40
2018-12-21T05:38:35.114Z,11.27
2018-12-21T05:41:03.881Z,11.23
2018-12-21T05:43:32.695Z,12.17
2018-12-21T05:46:01.452Z,11.27
2018-12-21T05:48:30.228Z,11.33
2018-12-21T05:50:58.916Z,11.53
2018-12-21T05:53:27.690Z,10.57
2018-12-21T05:55:56.968Z,11.30
2018-12-21T05:58:25.762Z,10.60
2018-12-21T06:00:54.592Z,11.17
2018-12-21T06:03:23.452Z,10.70
2018-12-21T06:05:52.211Z,11.10
2018-12-21T06:08:20.912Z,11.07
2018-12-21T06:10:49.684Z,11.10
2018-12-21T06:13:18.507Z,11.33
2018-12-21T06:15:47.196Z,11.20
2018-12-21T06:18:16.072Z,10.97
2018-12-21T06:20:45.393Z,11.43
2018-12-21T06:23:14.189Z,11.00
2018-12-21T06:25:42.905Z,11.30
2018-12-21T06:28:11.707Z,10.27
2018-12-21T06:30:40.396Z,10.83
2018-12-21T06:33:09.148Z,10.47
2018-12-21T06:35:37.838Z,10.43
2018-12-21T06:38:06.559Z,9.83
2018-12-21T06:40:35.328Z,10.20
2018-12-21T06:43:04.228Z,9.67
2018-12-21T06:45:32.995Z,9.83
2018-12-21T06:48:01.676Z,9.43
2018-12-21T06:50:30.787Z,9.53
2018-12-21T06:52:59.632Z,9.75
2018-12-21T06:55:28.447Z,9.63
2018-12-21T06:57:57.360Z,9.00
2018-12-21T07:00:26.125Z,10.07
2018-12-21T07:02:54.895Z,9.70
2018-12-21T07:05:23.645Z,9.27
2018-12-21T07:07:52.372Z,9.70
2018-12-21T07:10:21.131Z,10.30
2018-12-21T07:12:49.906Z,10.27
2018-12-21T07:15:18.683Z,10.00
2018-12-21T07:17:47.455Z,10.00
2018-12-21T07:20:16.149Z,10.23
2018-12-21T07:22:45.858Z,10.53
2018-12-21T07:25:14.632Z,10.43
2018-12-21T07:27:43.349Z,10.50
2018-12-21T07:30:12.443Z,10.37
2018-12-21T07:32:41.189Z,10.13
2018-12-21T07:35:12.467Z,10.90
2018-12-21T07:37:41.419Z,10.70
2018-12-21T07:40:10.513Z,10.00
2018-12-21T07:42:39.237Z,10.80
2018-12-21T07:45:09.528Z,10.07
2018-12-21T07:47:38.493Z,10.43
2018-12-21T07:50:09.589Z,9.90
2018-12-21T07:52:38.414Z,9.77
2018-12-21T07:55:09.086Z,9.00
2018-12-21T07:57:37.910Z,9.13
2018-12-21T08:00:09.846Z,9.33
2018-12-21T08:02:38.651Z,9.03
2018-12-21T08:05:08.033Z,8.70
2018-12-21T08:07:36.825Z,9.00
2018-12-21T08:10:09.952Z,9.20
2018-12-21T08:12:38.881Z,10.07
2018-12-21T08:15:07.628Z,9.60
2018-12-21T08:17:36.408Z,9.13
2018-12-21T08:20:05.883Z,8.80
2018-12-21T08:22:34.738Z,8.70
2018-12-21T08:25:03.660Z,8.90
2018-12-21T08:27:32.465Z,8.13
2018-12-21T08:30:01.269Z,8.00
2018-12-21T08:32:30.113Z,8.47
2018-12-21T08:34:58.896Z,8.53
2018-12-21T08:37:27.652Z,8.73
2018-12-21T08:39:56.473Z,8.63
2018-12-21T08:42:25.192Z,8.50
2018-12-21T08:44:53.880Z,8.20
2018-12-21T08:47:22.612Z,8.53
2018-12-21T08:49:51.324Z,8.90
2018-12-21T08:52:20.545Z,9.55
2018-12-21T08:54:49.290Z,10.20
2018-12-21T08:57:18.116Z,10.20
2018-12-21T08:59:46.869Z,9.43
2018-12-21T09:02:16.492Z,9.30
2018-12-21T09:04:46.340Z,9.47
2018-12-21T09:07:15.332Z,9.23
2018-12-21T09:09:44.048Z,10.13
2018-12-21T09:12:12.805Z,10.47
2018-12-21T09:14:41.568Z,10.07
2018-12-21T09:17:10.421Z,10.77
2018-12-21T09:19:39.189Z,10.13
2018-12-21T09:22:07.961Z,11.00
2018-12-21T09:24:36.766Z,10.23
2018-12-21T09:27:05.525Z,10.20
2018-12-21T09:29:35.235Z,9.73
2018-12-21T09:32:05.144Z,10.37
2018-12-21T09:34:34.265Z,9.80
2018-12-21T09:37:03.145Z,9.60
2018-12-21T09:39:31.933Z,9.13
2018-12-21T09:42:00.632Z,9.03
2018-12-21T09:44:29.424Z,9.00
2018-12-21T09:46:58.176Z,9.40
2018-12-21T09:49:26.989Z,8.70
2018-12-21T09:51:55.701Z,9.20
2018-12-21T09:54:24.396Z,8.60
2018-12-21T09:56:53.163Z,8.57
2018-12-21T09:59:21.957Z,8.60
2018-12-21T10:01:50.672Z,8.20
2018-12-21T10:04:19.473Z,8.17
2018-12-21T10:06:48.281Z,8.07
2018-12-21T10:09:17.216Z,7.43
2018-12-21T10:11:46.881Z,7.67
2018-12-21T10:14:15.634Z,8.40
2018-12-21T10:16:44.423Z,8.27
2018-12-21T10:19:13.403Z,8.13
2018-12-21T10:21:42.241Z,8.07
2018-12-21T10:24:18.293Z,8.20
2018-12-21T10:26:41.726Z,8.00
2018-12-21T10:29:10.532Z,8.20
2018-12-21T10:31:39.218Z,8.23
2018-12-21T10:34:08.008Z,7.60
2018-12-21T10:36:36.749Z,7.90
2018-12-21T10:39:07.170Z,7.57
2018-12-21T10:41:35.925Z,7.20
2018-12-21T10:44:04.789Z,6.97
2018-12-21T10:46:33.602Z,6.60
2018-12-21T10:49:02.437Z,6.80
2018-12-21T10:51:31.188Z,6.50
2018-12-21T10:53:59.900Z,7.00
2018-12-21T10:56:28.681Z,6.60
2018-12-21T10:58:57.425Z,6.23
2018-12-21T11:01:26.292Z,6.63
2018-12-21T11:03:55.017Z,6.47
2018-12-21T11:06:23.891Z,7.07
2018-12-21T11:08:52.792Z,6.43
2018-12-21T11:11:21.620Z,5.87
2018-12-21T11:13:50.389Z,6.50
2018-12-21T11:16:19.076Z,6.17
2018-12-21T11:18:47.760Z,6.30
2018-12-21T11:21:17.254Z,6.10
2018-12-21T11:23:45.981Z,6.63
2018-12-21T11:26:14.705Z,6.00
2018-12-21T11:28:43.407Z,6.13
2018-12-21T11:31:12.192Z,6.20
2018-12-21T11:33:40.962Z,5.80
2018-12-21T11:36:09.677Z,5.80
2018-12-21T11:38:39.621Z,6.37
2018-12-21T11:41:08.304Z,6.13
2018-12-21T11:43:37.382Z,6.13
2018-12-21T11:46:06.169Z,7.60
2018-12-21T11:48:35.504Z,7.07
2018-12-21T11:51:04.349Z,7.12
2018-12-21T11:53:33.118Z,6.30
2018-12-21T11:56:01.883Z,6.17
2018-12-21T11:58:30.568Z,6.87
2018-12-21T12:00:59.414Z,6.87
2018-12-21T12:03:28.389Z,6.43
2018-12-21T12:05:58.069Z,6.80
2018-12-21T12:08:26.855Z,6.97
2018-12-21T12:10:55.683Z,7.07
2018-12-21T12:13:24.433Z,6.00
2018-12-21T12:15:53.136Z,6.30
2018-12-21T12:18:21.934Z,6.60
2018-12-21T12:20:50.607Z,6.67
2018-12-21T12:23:19.438Z,7.23
2018-12-21T12:25:48.120Z,6.60
2018-12-21T12:28:18.976Z,6.80
2018-12-21T12:30:47.772Z,7.17
2018-12-21T12:33:17.453Z,6.90
2018-12-21T12:35:46.274Z,7.27
2018-12-21T12:38:15.351Z,6.80
2018-12-21T12:40:44.110Z,7.20
2018-12-21T12:43:12.897Z,6.67
2018-12-21T12:45:41.633Z,6.30
2018-12-21T12:48:10.377Z,6.37
2018-12-21T12:50:39.197Z,6.57
2018-12-21T12:53:07.897Z,6.63
2018-12-21T12:55:36.648Z,6.27
2018-12-21T12:58:05.333Z,6.27
2018-12-21T13:00:34.212Z,6.73
2018-12-21T13:03:02.963Z,6.40
2018-12-21T13:05:31.929Z,6.40
2018-12-21T13:08:00.701Z,6.30
2018-12-21T13:10:29.544Z,6.40
2018-12-21T13:12:59.131Z,6.57
2018-12-21T13:15:27.936Z,6.47
2018-12-21T13:17:56.760Z,6.00
2018-12-21T13:20:25.512Z,5.67
2018-12-21T13:22:54.308Z,6.57
2018-12-21T13:25:23.074Z,5.60
2018-12-21T13:27:51.763Z,6.17
2018-12-21T13:30:20.610Z,6.17
2018-12-21T13:32:49.320Z,5.87
2018-12-21T13:35:18.251Z,5.40
2018-12-21T13:37:48.199Z,5.53
2018-12-21T13:40:17.008Z,5.67
2018-12-21T13:42:45.883Z,5.13
2018-12-21T13:45:14.572Z,4.97
2018-12-21T13:47:43.349Z,5.60
2018-12-21T13:50:14.696Z,5.50
2018-12-21T13:52:43.456Z,5.30
2018-12-21T13:55:20.026Z,5.13
2018-12-21T13:57:43.021Z,4.83
2018-12-21T14:00:11.859Z,4.80
2018-12-21T14:02:40.702Z,5.23
2018-12-21T14:05:09.393Z,5.17
2018-12-21T14:07:38.077Z,5.57
2018-12-21T14:10:10.017Z,5.40
2018-12-21T14:12:38.962Z,4.97
2018-12-21T14:15:08.703Z,4.80
2018-12-21T14:17:37.371Z,4.70
2018-12-21T14:20:09.864Z,4.80
2018-12-21T14:22:38.665Z,4.80
2018-12-21T14:25:08.385Z,4.80
2018-12-21T14:27:37.208Z,4.77
2018-12-21T14:30:07.336Z,4.97
2018-12-21T14:32:36.213Z,4.57
2018-12-21T14:35:06.205Z,4.30
2018-12-21T14:37:35.067Z,4.47
2018-12-21T14:40:03.929Z,4.70
2018-12-21T14:42:32.663Z,4.53
2018-12-21T14:45:01.447Z,5.00
2018-12-21T14:47:30.191Z,4.90
2018-12-21T14:49:58.874Z,4.53
2018-12-21T14:52:27.689Z,5.40
2018-12-21T14:54:56.431Z,4.67
2018-12-21T14:57:25.184Z,4.83
2018-12-21T14:59:53.998Z,4.40
2018-12-21T15:02:23.780Z,4.27
2018-12-21T15:04:52.533Z,4.70
2018-12-21T15:07:21.225Z,4.60
2018-12-21T15:09:49.933Z,5.00
2018-12-21T15:12:18.664Z,5.10
2018-12-21T15:14:47.473Z,5.27
2018-12-21T15:17:16.183Z,5.10
2018-12-21T15:19:44.933Z,4.93
2018-12-21T15:22:13.798Z,4.57
2018-12-21T15:24:42.525Z,5.07
2018-12-21T15:27:11.294Z,5.60
2018-12-21T15:29:41.154Z,5.50
2018-12-21T15:32:10.001Z,5.47
2018-12-21T15:34:38.797Z,5.30
2018-12-21T15:37:07.633Z,5.53
2018-12-21T15:39:36.388Z,5.23
2018-12-21T15:42:05.137Z,5.10
2018-12-21T15:44:33.894Z,5.57
2018-12-21T15:47:08.984Z,5.10
2018-12-21T15:49:34.323Z,5.07
2018-12-21T15:52:03.084Z,5.53
2018-12-21T15:54:31.801Z,5.60
2018-12-21T15:57:01.421Z,6.00
2018-12-21T15:59:30.212Z,6.23
2018-12-21T16:01:58.938Z,6.47
2018-12-21T16:04:27.629Z,6.77
2018-12-21T16:06:56.306Z,5.93
2018-12-21T16:09:25.060Z,6.37
2018-12-21T16:11:53.817Z,6.53
2018-12-21T16:14:22.554Z,6.00
2018-12-21T16:16:51.308Z,6.00
2018-12-21T16:19:20.139Z,5.83
2018-12-21T16:21:49.086Z,5.43
2018-12-21T16:24:18.060Z,5.17
2018-12-21T16:26:46.739Z,5.57
2018-12-21T16:29:15.529Z,4.90
2018-12-21T16:31:44.277Z,4.67
2018-12-21T16:34:13.038Z,4.17
2018-12-21T16:36:41.720Z,3.40
2018-12-21T16:39:10.408Z,3.47
2018-12-21T16:41:39.145Z,3.80
2018-12-21T16:44:14.513Z,3.90
2018-12-21T16:46:43.259Z,4.60
2018-12-21T16:49:12.034Z,4.30
2018-12-21T16:51:40.717Z,3.83
2018-12-21T16:54:09.463Z,3.50
2018-12-21T16:56:38.231Z,3.40
2018-12-21T16:59:06.990Z,3.63
2018-12-21T17:01:35.860Z,3.60
2018-12-21T17:04:04.709Z,3.70
2018-12-21T17:06:33.592Z,7.60
2018-12-21T17:09:02.671Z,8.03
2018-12-21T17:11:31.703Z,5.37
2018-12-21T17:14:02.016Z,4.47
2018-12-21T17:16:30.946Z,4.07
2018-12-21T17:19:02.125Z,4.20
2018-12-21T17:21:30.964Z,7.10
2018-12-21T17:23:59.773Z,5.50
2018-12-21T17:26:28.621Z,5.50
2018-12-21T17:28:57.304Z,7.43
2018-12-21T17:31:26.139Z,6.20
2018-12-21T17:33:54.953Z,7.23
2018-12-21T17:36:23.748Z,7.33
2018-12-21T17:38:52.605Z,8.47
2018-12-21T17:41:21.341Z,9.07
2018-12-21T17:43:50.093Z,9.87
2018-12-21T17:46:19.769Z,11.97
2018-12-21T17:48:48.473Z,13.63
2018-12-21T17:51:17.299Z,13.77
2018-12-21T17:53:46.173Z,14.00
2018-12-21T17:56:15.052Z,14.47
2018-12-21T17:58:44.801Z,25.50
2018-12-21T18:01:13.783Z,17.40
2018-12-21T18:03:48.147Z,17.63
2018-12-21T18:06:16.839Z,17.03
2018-12-21T18:08:45.529Z,21.70
2018-12-21T18:11:14.290Z,23.90
2018-12-21T18:13:43.047Z,19.10
2018-12-21T18:16:12.018Z,19.63
2018-12-21T18:18:40.700Z,19.10
2018-12-21T18:21:09.478Z,18.47
2018-12-21T18:23:39.324Z,19.40
2018-12-21T18:26:08.353Z,17.83
2018-12-21T18:28:37.029Z,17.13
2018-12-21T18:31:18.752Z,16.73
2018-12-21T18:33:47.610Z,12.07
2018-12-21T18:36:16.608Z,10.37
2018-12-21T18:38:45.311Z,13.03
2018-12-21T18:41:14.133Z,12.43
2018-12-21T18:43:42.901Z,11.67
2018-12-21T18:46:11.732Z,12.60
2018-12-21T18:48:40.515Z,11.27
2018-12-21T18:51:09.664Z,11.00
2018-12-21T18:53:38.558Z,9.10
2018-12-21T18:56:11.730Z,7.90
2018-12-21T18:58:40.495Z,5.90
2018-12-21T19:01:09.250Z,6.33
2018-12-21T19:03:38.100Z,5.63
2018-12-21T19:06:06.873Z,5.30
2018-12-21T19:08:35.630Z,4.37
2018-12-21T19:11:04.687Z,4.00
2018-12-21T19:13:33.712Z,3.67
2018-12-21T19:16:02.532Z,3.63
2018-12-21T19:18:31.252Z,5.10
2018-12-21T19:21:00.697Z,4.60
2018-12-21T19:23:29.650Z,6.00
2018-12-21T19:25:58.434Z,3.80
2018-12-21T19:28:28.309Z,5.20
2018-12-21T19:30:58.804Z,4.92
2018-12-21T19:33:28.691Z,4.20
2018-12-21T19:35:58.585Z,5.43
2018-12-21T19:38:27.427Z,4.10
2018-12-21T19:40:57.145Z,4.05
2018-12-21T19:43:28.226Z,5.17
2018-12-21T19:45:56.613Z,4.97
2018-12-21T19:48:25.395Z,4.50
2018-12-21T19:50:55.096Z,3.87
2018-12-21T19:53:23.808Z,4.50
2018-12-21T19:55:57.711Z,3.97
2018-12-21T19:58:26.646Z,4.17
2018-12-21T20:00:56.138Z,13.20
2018-12-21T20:03:24.832Z,4.50
2018-12-21T20:05:53.667Z,4.10
2018-12-21T20:08:23.542Z,4.37
2018-12-21T20:10:52.250Z,4.70
2018-12-21T20:13:21.562Z,4.07
2018-12-21T20:15:51.601Z,4.77
2018-12-21T20:18:20.509Z,4.17
2018-12-21T20:20:49.366Z,4.53
2018-12-21T20:23:19.285Z,4.50
2018-12-21T20:25:48.273Z,4.70
2018-12-21T20:28:17.113Z,5.70
2018-12-21T20:30:45.942Z,5.73
2018-12-21T20:33:14.721Z,5.90
2018-12-21T20:35:43.624Z,5.40
2018-12-21T20:38:12.330Z,5.07
2018-12-21T20:40:41.385Z,5.30
2018-12-21T20:43:10.114Z,4.33
2018-12-21T20:45:38.865Z,4.87
2018-12-21T20:48:07.552Z,4.37
2018-12-21T20:50:36.404Z,4.80
2018-12-21T20:53:05.080Z,2.97
2018-12-21T20:55:33.962Z,3.73
2018-12-21T20:58:08.430Z,3.83
2018-12-21T21:00:37.111Z,5.30
2018-12-21T21:03:07.211Z,3.73
2018-12-21T21:05:36.183Z,4.13
2018-12-21T21:08:04.964Z,4.07
2018-12-21T21:10:33.690Z,3.47
2018-12-21T21:13:02.509Z,3.00
2018-12-21T21:15:31.190Z,3.03
2018-12-21T21:17:59.870Z,3.23
2018-12-21T21:20:28.869Z,2.93
2018-12-21T21:22:57.548Z,2.90
2018-12-21T21:25:27.338Z,3.10
2018-12-21T21:27:56.167Z,3.13
2018-12-21T21:30:25.976Z,6.30
2018-12-21T21:32:54.852Z,2.80
2018-12-21T21:35:23.575Z,3.30
2018-12-21T21:37:52.284Z,3.07
2018-12-21T21:40:21.951Z,4.27
2018-12-21T21:42:57.462Z,2.53
2018-12-21T21:45:22.204Z,3.10
2018-12-21T21:47:50.988Z,3.57
2018-12-21T21:50:19.832Z,4.27
2018-12-21T21:52:48.552Z,5.50
2018-12-21T21:55:17.326Z,6.17
2018-12-21T21:57:46.145Z,6.07
2018-12-21T22:00:15.107Z,4.90
2018-12-21T22:02:43.928Z,4.77
2018-12-21T22:05:12.647Z,5.40
2018-12-21T22:07:41.417Z,6.20
2018-12-21T22:10:10.909Z,6.97
2018-12-21T22:12:39.597Z,6.20
2018-12-21T22:15:09.795Z,8.93
2018-12-21T22:17:38.631Z,8.00
2018-12-21T22:20:10.566Z,6.47
2018-12-21T22:22:39.315Z,6.80
2018-12-21T22:25:08.071Z,6.40
2018-12-21T22:27:36.827Z,6.60
2018-12-21T22:30:08.198Z,4.77
2018-12-21T22:32:36.960Z,6.93
2018-12-21T22:35:05.910Z,4.93
2018-12-21T22:37:34.604Z,5.47
2018-12-21T22:40:03.848Z,6.93
2018-12-21T22:42:32.701Z,6.40
2018-12-21T22:45:01.379Z,5.73
2018-12-21T22:47:30.096Z,4.80
2018-12-21T22:49:58.858Z,5.80
2018-12-21T22:52:27.702Z,5.80
2018-12-21T22:54:56.381Z,5.23
2018-12-21T22:57:25.061Z,4.20
2018-12-21T22:59:53.749Z,4.30
2018-12-21T23:02:22.887Z,4.20
2018-12-21T23:04:51.637Z,5.00
2018-12-21T23:07:20.467Z,5.00
2018-12-21T23:09:49.327Z,4.33
2018-12-21T23:12:18.156Z,3.80
2018-12-21T23:14:46.883Z,3.57
2018-12-21T23:17:15.625Z,3.40
2018-12-21T23:19:44.397Z,4.17
2018-12-21T23:22:13.161Z,5.90
2018-12-21T23:24:41.990Z,3.90
2018-12-21T23:27:10.751Z,3.30
2018-12-21T23:29:39.849Z,3.23
2018-12-21T23:32:08.796Z,3.70
2018-12-21T23:34:37.574Z,3.43
2018-12-21T23:37:06.295Z,3.63
2018-12-21T23:39:35.137Z,3.10
2018-12-21T23:42:03.929Z,2.30
2018-12-21T23:44:32.841Z,2.80
2018-12-21T23:47:01.615Z,4.13
2018-12-21T23:49:30.421Z,2.60
2018-12-21T23:51:59.170Z,2.60
2018-12-21T23:54:27.880Z,2.47
2018-12-21T23:56:56.657Z,2.63
2018-12-21T23:59:25.571Z,3.13
